Terminal Aerodrome Forecast
Issued by NWS Grand Forks, ND

Home | Current Version | Previous Version | Text Only | Print | Product List | Glossary On
Versions: 1 2 3 4 5 6 7 8 9 10 11 12 13 14 15
000
FTUS43 KFGF 272300
TAFGFK
TAF
KGFK 272330Z 2800/2824 35012KT P6SM BKN080
     FM280200 34010KT P6SM VCSH BKN040
      TEMPO 2802/2805 -SHRA BKN025
     FM280800 VRB05KT P6SM SKC
     FM281800 34008KT P6SM FEW050=

USA.gov is the U.S. government's official web portal to all federal, state and local government web resources and services.